createdAt,value
2022-09-04T00:00:11.532Z,26.60
2022-09-04T00:02:27.831Z,26.60
2022-09-04T00:04:45.381Z,26.70
2022-09-04T00:07:07.073Z,26.70
2022-09-04T00:09:25.316Z,26.70
2022-09-04T00:11:43.145Z,26.70
2022-09-04T00:13:55.660Z,26.70
2022-09-04T00:16:09.767Z,26.70
2022-09-04T00:18:23.550Z,26.70
2022-09-04T00:20:41.831Z,26.70
2022-09-04T00:22:56.428Z,26.70
2022-09-04T00:25:12.261Z,26.70
2022-09-04T00:27:24.674Z,26.70
2022-09-04T00:29:42.243Z,26.70
2022-09-04T00:31:54.091Z,26.70
2022-09-04T00:34:16.679Z,26.70
2022-09-04T00:36:28.825Z,26.70
2022-09-04T00:38:44.455Z,26.70
2022-09-04T00:41:05.157Z,26.70
2022-09-04T00:43:41.059Z,26.70
2022-09-04T00:46:15.369Z,26.80
2022-09-04T00:48:59.118Z,26.70
2022-09-04T00:51:18.484Z,26.80
2022-09-04T00:53:57.151Z,26.80
2022-09-04T00:56:34.337Z,26.80
2022-09-04T00:59:00.668Z,26.80
2022-09-04T01:01:08.776Z,26.90
2022-09-04T01:03:28.294Z,27.00
2022-09-04T01:05:52.576Z,27.10
2022-09-04T01:08:21.467Z,27.20
2022-09-04T01:10:42.729Z,27.30
2022-09-04T01:12:59.941Z,27.40
2022-09-04T01:15:17.064Z,27.50
2022-09-04T01:17:33.767Z,27.50
2022-09-04T01:19:59.228Z,27.50
2022-09-04T01:22:19.416Z,27.60
2022-09-04T01:24:50.452Z,27.60
2022-09-04T01:27:07.768Z,27.70
2022-09-04T01:29:37.592Z,27.70
2022-09-04T01:31:51.854Z,27.70
2022-09-04T01:34:09.462Z,27.80
2022-09-04T01:36:28.981Z,27.80
2022-09-04T01:38:42.606Z,27.80
2022-09-04T01:40:57.728Z,27.80
2022-09-04T01:43:12.083Z,27.80
2022-09-04T01:45:31.311Z,27.80
2022-09-04T01:47:44.471Z,27.80
2022-09-04T01:50:00.553Z,27.80
2022-09-04T01:52:19.462Z,27.80
2022-09-04T01:54:49.333Z,27.90
2022-09-04T01:57:11.105Z,28.10
2022-09-04T01:59:29.745Z,28.20
2022-09-04T02:01:44.495Z,28.30
2022-09-04T02:03:55.530Z,28.40
2022-09-04T02:06:12.795Z,28.60
2022-09-04T02:08:32.737Z,28.60
2022-09-04T02:10:48.516Z,28.70
2022-09-04T02:13:08.442Z,28.80
2022-09-04T02:15:31.903Z,28.90
2022-09-04T02:17:46.511Z,28.90
2022-09-04T02:20:12.226Z,29.00
2022-09-04T02:22:30.109Z,29.00
2022-09-04T02:24:44.302Z,29.10
2022-09-04T02:26:56.196Z,29.10
2022-09-04T02:29:09.316Z,29.10
2022-09-04T02:31:24.742Z,29.20
2022-09-04T02:33:40.985Z,29.30
2022-09-04T02:35:53.040Z,29.30
2022-09-04T02:38:12.912Z,29.40
2022-09-04T02:40:29.935Z,29.50
2022-09-04T02:42:47.914Z,29.60
2022-09-04T02:45:11.524Z,29.70
2022-09-04T02:47:27.513Z,29.70
2022-09-04T02:49:41.966Z,29.70
2022-09-04T02:52:03.071Z,29.80
2022-09-04T02:54:20.824Z,29.90
2022-09-04T02:56:39.142Z,29.80
2022-09-04T02:58:59.291Z,29.90
2022-09-04T03:01:13.575Z,29.90
2022-09-04T03:03:27.474Z,30.00
2022-09-04T03:05:43.202Z,30.10
2022-09-04T03:07:56.628Z,30.20
2022-09-04T03:10:13.130Z,30.30
2022-09-04T03:12:41.046Z,30.30
2022-09-04T03:14:54.940Z,30.30
2022-09-04T03:17:09.236Z,30.20
2022-09-04T03:19:25.017Z,30.30
2022-09-04T03:21:37.422Z,30.40
2022-09-04T03:23:51.261Z,30.40
2022-09-04T03:26:23.734Z,30.30
2022-09-04T03:28:35.728Z,30.30
2022-09-04T03:30:44.703Z,30.40
2022-09-04T03:33:03.937Z,30.70
2022-09-04T03:35:20.517Z,30.80
2022-09-04T03:37:56.318Z,31.00
2022-09-04T03:40:16.413Z,31.20
2022-09-04T03:42:33.876Z,31.30
2022-09-04T03:44:50.414Z,31.30
2022-09-04T03:47:09.851Z,31.30
2022-09-04T03:49:28.905Z,31.30
2022-09-04T03:51:48.030Z,31.40
2022-09-04T03:54:06.929Z,31.50
2022-09-04T03:56:30.953Z,31.60
2022-09-04T03:58:44.583Z,31.60
2022-09-04T04:00:59.102Z,31.60
2022-09-04T04:03:15.508Z,31.70
2022-09-04T04:05:38.130Z,31.70
2022-09-04T04:07:57.761Z,31.70
2022-09-04T04:10:16.708Z,31.50
2022-09-04T04:12:40.839Z,31.40
2022-09-04T04:15:02.199Z,31.20
2022-09-04T04:17:25.171Z,31.10
2022-09-04T04:19:53.091Z,31.20
2022-09-04T04:22:17.153Z,31.40
2022-09-04T04:24:50.395Z,31.60
2022-09-04T04:27:08.788Z,31.80
2022-09-04T04:29:41.928Z,31.80
2022-09-04T04:32:14.707Z,31.80
2022-09-04T04:34:30.133Z,31.90
2022-09-04T04:36:44.391Z,31.90
2022-09-04T04:39:05.384Z,31.80
2022-09-04T04:42:09.551Z,31.80
2022-09-04T04:44:20.572Z,31.90
2022-09-04T04:46:38.387Z,31.90
2022-09-04T04:49:27.317Z,32.00
2022-09-04T04:52:03.782Z,32.10
2022-09-04T04:54:27.144Z,32.20
2022-09-04T04:56:46.875Z,32.20
2022-09-04T04:59:21.651Z,32.30
2022-09-04T05:01:39.018Z,32.40
2022-09-04T05:04:03.716Z,32.60
2022-09-04T05:06:22.416Z,32.60
2022-09-04T05:08:38.147Z,32.50
2022-09-04T05:10:50.960Z,32.40
2022-09-04T05:13:13.090Z,32.40
2022-09-04T05:15:27.795Z,32.30
2022-09-04T05:17:42.504Z,32.20
2022-09-04T05:19:54.755Z,32.10
2022-09-04T05:22:12.384Z,32.00
2022-09-04T05:24:25.912Z,31.80
2022-09-04T05:26:47.017Z,31.80
2022-09-04T05:29:09.718Z,31.60
2022-09-04T05:31:25.565Z,31.60
2022-09-04T05:33:39.451Z,31.40
2022-09-04T05:35:53.935Z,31.30
2022-09-04T05:38:07.676Z,31.20
2022-09-04T05:40:26.634Z,31.20
2022-09-04T05:42:49.285Z,31.10
2022-09-04T05:45:04.707Z,31.00
2022-09-04T05:47:30.945Z,31.00
2022-09-04T05:49:58.035Z,31.00
2022-09-04T05:52:27.686Z,30.90
2022-09-04T05:55:18.544Z,30.90
2022-09-04T05:57:44.773Z,30.90
2022-09-04T06:00:09.111Z,30.80
2022-09-04T06:02:52.954Z,30.70
2022-09-04T06:05:20.251Z,30.60
2022-09-04T06:07:34.599Z,30.60
2022-09-04T06:10:01.237Z,30.60
2022-09-04T06:12:34.689Z,30.60
2022-09-04T06:15:16.427Z,30.60
2022-09-04T06:17:35.079Z,30.60
2022-09-04T06:19:59.924Z,30.60
2022-09-04T06:22:39.116Z,30.60
2022-09-04T06:25:19.156Z,30.60
2022-09-04T06:27:51.475Z,30.60
2022-09-04T06:30:10.897Z,30.60
2022-09-04T06:32:49.175Z,30.70
2022-09-04T06:35:20.967Z,30.70
2022-09-04T06:37:37.572Z,30.70
2022-09-04T06:40:06.760Z,30.70
2022-09-04T06:42:31.002Z,30.90
2022-09-04T06:44:54.771Z,31.20
2022-09-04T06:47:12.239Z,31.40
2022-09-04T06:49:27.568Z,31.70
2022-09-04T06:51:51.331Z,31.90
2022-09-04T06:54:09.832Z,32.10
2022-09-04T06:56:39.490Z,32.10
2022-09-04T06:59:06.742Z,32.30
2022-09-04T07:01:20.940Z,32.40
2022-09-04T07:03:49.574Z,32.50
2022-09-04T07:06:04.125Z,32.70
2022-09-04T07:08:24.611Z,32.70
2022-09-04T07:10:36.359Z,32.70
2022-09-04T07:13:24.711Z,32.70
2022-09-04T07:15:59.919Z,32.80
2022-09-04T07:18:18.783Z,32.90
2022-09-04T07:20:35.097Z,32.90
2022-09-04T07:23:09.623Z,32.80
2022-09-04T07:25:24.434Z,32.70
2022-09-04T07:27:45.843Z,32.60
2022-09-04T07:29:58.042Z,32.60
2022-09-04T07:32:12.343Z,32.60
2022-09-04T07:34:27.254Z,32.60
2022-09-04T07:36:42.121Z,32.60
2022-09-04T07:38:55.391Z,32.50
2022-09-04T07:41:12.967Z,32.50
2022-09-04T07:43:32.075Z,32.30
2022-09-04T07:45:52.301Z,32.20
2022-09-04T07:48:18.977Z,32.20
2022-09-04T07:50:29.522Z,32.20
2022-09-04T07:53:10.624Z,32.10
2022-09-04T07:55:27.447Z,32.00
2022-09-04T07:58:00.842Z,31.90
2022-09-04T08:00:14.677Z,32.00
2022-09-04T08:02:35.030Z,32.20
2022-09-04T08:05:10.347Z,32.30
2022-09-04T08:07:24.812Z,32.50
2022-09-04T08:09:47.303Z,32.70
2022-09-04T08:12:16.194Z,32.70
2022-09-04T08:14:38.227Z,32.80
2022-09-04T08:16:53.702Z,33.00
2022-09-04T08:19:15.926Z,33.00
2022-09-04T08:21:29.942Z,33.10
2022-09-04T08:24:19.862Z,33.10
2022-09-04T08:26:39.533Z,33.20
2022-09-04T08:29:06.786Z,33.20
2022-09-04T08:31:24.037Z,33.20
2022-09-04T08:33:46.859Z,33.00
2022-09-04T08:35:59.977Z,32.80
2022-09-04T08:38:30.351Z,32.70
2022-09-04T08:41:08.044Z,32.50
2022-09-04T08:43:53.839Z,32.40
2022-09-04T08:46:31.182Z,32.30
2022-09-04T08:49:18.140Z,32.30
2022-09-04T08:52:14.316Z,32.30
2022-09-04T08:54:46.485Z,32.20
2022-09-04T08:57:12.812Z,32.20
2022-09-04T08:59:52.352Z,32.20
2022-09-04T09:02:22.080Z,32.20
2022-09-04T09:05:06.770Z,32.30
2022-09-04T09:07:45.906Z,32.30
2022-09-04T09:10:29.287Z,32.20
2022-09-04T09:13:13.636Z,32.10
2022-09-04T09:16:01.680Z,32.10
2022-09-04T09:18:27.647Z,32.10
2022-09-04T09:20:40.469Z,32.00
2022-09-04T09:23:28.266Z,32.00
2022-09-04T09:25:47.048Z,32.00
2022-09-04T09:28:38.420Z,31.90
2022-09-04T09:31:06.432Z,31.80
2022-09-04T09:33:54.942Z,31.70
2022-09-04T09:36:28.033Z,31.40
2022-09-04T09:39:15.910Z,31.10
2022-09-04T09:41:57.963Z,30.80
2022-09-04T09:44:45.591Z,30.40
2022-09-04T09:47:24.881Z,30.00
2022-09-04T09:50:04.310Z,29.60
2022-09-04T09:52:49.395Z,29.40
2022-09-04T09:55:42.704Z,29.20
2022-09-04T09:58:24.800Z,29.00
2022-09-04T10:00:37.916Z,28.80
2022-09-04T10:03:28.982Z,28.60
2022-09-04T10:06:10.823Z,28.00
2022-09-04T10:08:54.470Z,27.60
2022-09-04T10:11:37.844Z,27.30
2022-09-04T10:14:25.028Z,27.10
2022-09-04T10:16:55.886Z,27.00
2022-09-04T10:19:47.622Z,27.10
2022-09-04T10:22:34.947Z,27.10
2022-09-04T10:25:12.239Z,27.20
2022-09-04T10:28:13.429Z,27.30
2022-09-04T10:30:23.458Z,27.40
2022-09-04T10:33:11.856Z,27.50
2022-09-04T10:35:40.510Z,27.60
2022-09-04T10:38:06.389Z,27.60
2022-09-04T10:40:42.188Z,27.60
2022-09-04T10:43:04.107Z,27.70
2022-09-04T10:45:19.991Z,27.70
2022-09-04T10:47:39.015Z,27.70
2022-09-04T10:50:13.997Z,27.70
2022-09-04T10:52:53.650Z,27.70
2022-09-04T10:55:28.971Z,27.70
2022-09-04T10:58:03.911Z,27.80
2022-09-04T11:00:14.978Z,27.70
2022-09-04T11:02:56.309Z,27.70
2022-09-04T11:05:37.547Z,27.70
2022-09-04T11:08:10.421Z,27.70
2022-09-04T11:10:45.251Z,27.70
2022-09-04T11:13:35.339Z,27.70
2022-09-04T11:15:55.890Z,27.70
2022-09-04T11:18:36.355Z,27.60
2022-09-04T11:21:26.179Z,27.60
2022-09-04T11:24:00.444Z,27.60
2022-09-04T11:26:48.840Z,27.60
2022-09-04T11:29:28.337Z,27.60
2022-09-04T11:31:49.851Z,27.60
2022-09-04T11:34:35.022Z,27.50
2022-09-04T11:37:41.701Z,27.60
2022-09-04T11:40:33.424Z,27.50
2022-09-04T11:43:09.945Z,27.40
2022-09-04T11:45:44.254Z,27.30
2022-09-04T11:48:13.157Z,27.40
2022-09-04T11:50:37.227Z,27.30
2022-09-04T11:53:02.226Z,27.30
2022-09-04T11:55:40.644Z,27.30
2022-09-04T11:58:09.481Z,27.20
2022-09-04T12:00:18.309Z,27.30
2022-09-04T12:02:50.623Z,27.30
2022-09-04T12:05:13.471Z,27.40
2022-09-04T12:07:43.080Z,27.30
2022-09-04T12:10:13.406Z,27.30
2022-09-04T12:12:40.615Z,27.40
2022-09-04T12:15:07.521Z,27.40
2022-09-04T12:17:57.587Z,27.40
2022-09-04T12:20:26.374Z,27.40
2022-09-04T12:23:10.109Z,27.40
2022-09-04T12:25:47.806Z,27.30
2022-09-04T12:28:38.919Z,27.30
2022-09-04T12:31:01.926Z,27.30
2022-09-04T12:33:37.171Z,27.20
2022-09-04T12:36:19.728Z,27.10
2022-09-04T12:38:50.871Z,27.10
2022-09-04T12:41:05.522Z,27.20
2022-09-04T12:43:34.622Z,27.20
2022-09-04T12:45:53.221Z,27.20
2022-09-04T12:48:12.430Z,27.30
2022-09-04T12:50:29.508Z,27.30
2022-09-04T12:53:12.160Z,27.30
2022-09-04T12:55:24.054Z,27.30
2022-09-04T12:57:40.763Z,27.30
2022-09-04T13:00:03.297Z,27.30
2022-09-04T13:02:20.689Z,27.20
2022-09-04T13:04:35.375Z,27.20
2022-09-04T13:06:51.576Z,27.20
2022-09-04T13:09:15.241Z,27.20
2022-09-04T13:11:28.108Z,27.30
2022-09-04T13:13:49.105Z,27.20
2022-09-04T13:16:01.887Z,27.20
2022-09-04T13:18:20.520Z,27.10
2022-09-04T13:20:36.558Z,27.10
2022-09-04T13:22:56.287Z,27.10
2022-09-04T13:25:15.553Z,27.10
2022-09-04T13:27:37.482Z,27.10
2022-09-04T13:30:03.051Z,27.20
2022-09-04T13:32:27.736Z,27.20
2022-09-04T13:34:49.663Z,27.20
2022-09-04T13:37:07.295Z,27.20
2022-09-04T13:39:44.780Z,27.30
2022-09-04T13:42:21.407Z,27.30
2022-09-04T13:44:52.084Z,27.30
2022-09-04T13:47:07.074Z,27.30
2022-09-04T13:49:18.740Z,27.30
2022-09-04T13:51:32.117Z,27.30
2022-09-04T13:53:50.664Z,27.30
2022-09-04T13:56:00.705Z,27.30
2022-09-04T13:58:15.219Z,27.30
2022-09-04T14:00:22.667Z,27.30
2022-09-04T14:02:32.960Z,27.30
2022-09-04T14:04:46.431Z,27.30
2022-09-04T14:07:03.502Z,27.30
2022-09-04T14:09:11.344Z,27.30
2022-09-04T14:11:59.896Z,27.30
2022-09-04T14:14:42.506Z,27.30
2022-09-04T14:16:50.507Z,27.30
2022-09-04T14:19:19.716Z,27.30
2022-09-04T14:21:42.426Z,27.20
2022-09-04T14:24:02.124Z,27.30
2022-09-04T14:26:19.496Z,27.20
2022-09-04T14:28:37.582Z,27.20
2022-09-04T14:30:55.004Z,27.20
2022-09-04T14:33:19.354Z,27.20
2022-09-04T14:35:39.789Z,27.20
2022-09-04T14:38:22.608Z,27.10
2022-09-04T14:40:36.029Z,27.10
2022-09-04T14:42:50.692Z,27.10
2022-09-04T14:45:19.269Z,27.10
2022-09-04T14:47:38.498Z,27.10
2022-09-04T14:49:48.485Z,27.10
2022-09-04T14:51:58.787Z,27.10
2022-09-04T14:54:07.193Z,27.20
2022-09-04T14:56:28.714Z,27.20
2022-09-04T14:58:41.020Z,27.20
2022-09-04T15:01:02.894Z,27.30
2022-09-04T15:03:18.177Z,27.30
2022-09-04T15:05:29.747Z,27.30
2022-09-04T15:07:55.053Z,27.30
2022-09-04T15:10:17.354Z,27.30
2022-09-04T15:12:30.061Z,27.30
2022-09-04T15:14:41.894Z,27.20
2022-09-04T15:16:50.814Z,27.20
2022-09-04T15:19:06.498Z,27.10
2022-09-04T15:21:21.267Z,27.10
2022-09-04T15:23:36.218Z,27.10
2022-09-04T15:25:59.873Z,27.10
2022-09-04T15:28:14.847Z,27.00
2022-09-04T15:30:24.437Z,27.00
2022-09-04T15:32:34.395Z,27.00
2022-09-04T15:34:42.795Z,27.10
2022-09-04T15:36:50.029Z,27.10
2022-09-04T15:39:00.188Z,27.10
2022-09-04T15:41:20.883Z,27.00
2022-09-04T15:43:36.812Z,27.00
2022-09-04T15:45:49.882Z,26.90
2022-09-04T15:48:37.265Z,27.00
2022-09-04T15:50:58.215Z,27.00
2022-09-04T15:53:17.375Z,27.00
2022-09-04T15:55:29.475Z,27.10
2022-09-04T15:57:44.953Z,27.00
2022-09-04T16:00:00.587Z,27.10
2022-09-04T16:02:13.674Z,27.00
2022-09-04T16:04:29.797Z,27.00
2022-09-04T16:06:48.999Z,27.00
2022-09-04T16:09:01.917Z,26.90
2022-09-04T16:11:17.806Z,26.90
2022-09-04T16:13:48.537Z,27.00
2022-09-04T16:16:04.360Z,27.00
2022-09-04T16:18:19.503Z,27.00
2022-09-04T16:20:34.561Z,27.00
2022-09-04T16:22:47.584Z,27.00
2022-09-04T16:25:00.392Z,26.90
2022-09-04T16:27:16.581Z,26.90
2022-09-04T16:29:37.686Z,26.90
2022-09-04T16:31:55.624Z,26.90
2022-09-04T16:34:06.288Z,26.90
2022-09-04T16:36:23.399Z,26.90
2022-09-04T16:38:35.194Z,26.80
2022-09-04T16:40:43.399Z,26.80
2022-09-04T16:42:54.369Z,26.70
2022-09-04T16:45:08.407Z,26.70
2022-09-04T16:47:23.884Z,26.70
2022-09-04T16:49:40.183Z,26.70
2022-09-04T16:51:50.430Z,26.70
2022-09-04T16:54:00.441Z,26.60
2022-09-04T16:56:17.393Z,26.60
2022-09-04T16:58:35.502Z,26.50
2022-09-04T17:01:12.852Z,26.60
2022-09-04T17:03:28.046Z,26.60
2022-09-04T17:05:41.158Z,26.50
2022-09-04T17:07:53.666Z,26.50
2022-09-04T17:10:10.784Z,26.50
2022-09-04T17:12:27.741Z,26.50
2022-09-04T17:14:40.148Z,26.50
2022-09-04T17:16:58.384Z,26.50
2022-09-04T17:19:07.368Z,26.60
2022-09-04T17:25:14.624Z,26.60
2022-09-04T17:29:11.654Z,26.60
2022-09-04T17:29:16.515Z,26.60
2022-09-04T17:29:34.279Z,26.60
2022-09-04T17:31:47.583Z,26.60
2022-09-04T17:40:39.449Z,26.60
2022-09-04T17:40:43.203Z,26.60
2022-09-04T17:40:54.949Z,26.60
2022-09-04T17:42:04.561Z,26.60
2022-09-04T17:44:30.413Z,26.60
2022-09-04T17:46:40.191Z,26.60
2022-09-04T17:48:48.874Z,26.60
2022-09-04T17:50:58.775Z,26.60
2022-09-04T17:53:12.085Z,26.60
2022-09-04T17:55:27.933Z,26.60
2022-09-04T17:57:52.684Z,26.60
2022-09-04T18:00:05.948Z,26.60
2022-09-04T18:02:19.699Z,26.70
2022-09-04T18:04:34.855Z,26.60
2022-09-04T18:06:46.954Z,26.60
2022-09-04T18:09:00.283Z,26.70
2022-09-04T18:11:17.036Z,26.70
2022-09-04T18:13:38.153Z,26.70
2022-09-04T18:15:55.255Z,26.70
2022-09-04T18:18:11.550Z,26.70
2022-09-04T18:20:38.954Z,26.80
2022-09-04T18:23:23.003Z,26.80
2022-09-04T18:25:36.737Z,26.80
2022-09-04T18:28:11.267Z,26.70
2022-09-04T18:35:22.713Z,26.70
2022-09-04T18:37:18.589Z,26.80
2022-09-04T18:37:23.201Z,26.70
2022-09-04T18:37:57.717Z,26.80
2022-09-04T18:40:17.078Z,26.80
2022-09-04T18:50:29.879Z,26.90
2022-09-04T18:50:39.808Z,26.80
2022-09-04T18:50:48.820Z,26.80
2022-09-04T18:51:12.492Z,26.80
2022-09-04T18:53:15.215Z,26.80
2022-09-04T18:55:30.898Z,26.80
2022-09-04T18:57:49.269Z,26.80
2022-09-04T19:00:07.985Z,26.70
2022-09-04T19:02:21.371Z,26.70
2022-09-04T19:04:48.724Z,26.70
2022-09-04T19:07:07.347Z,26.70
2022-09-04T19:09:19.676Z,26.80
2022-09-04T19:11:31.469Z,26.80
2022-09-04T19:13:40.496Z,26.80
2022-09-04T19:16:07.023Z,26.80
2022-09-04T19:18:31.358Z,26.80
2022-09-04T19:20:48.634Z,26.80
2022-09-04T19:23:00.266Z,26.80
2022-09-04T19:25:14.317Z,26.70
2022-09-04T19:27:31.635Z,26.70
2022-09-04T19:29:46.796Z,26.70
2022-09-04T19:32:00.986Z,26.60
2022-09-04T19:34:16.016Z,26.50
2022-09-04T19:36:32.308Z,26.50
2022-09-04T19:45:55.799Z,26.50
2022-09-04T19:46:08.224Z,26.60
2022-09-04T19:46:17.180Z,26.50
2022-09-04T19:46:42.075Z,26.50
2022-09-04T19:49:33.485Z,26.50
2022-09-04T19:53:36.807Z,26.50
2022-09-04T19:54:14.147Z,26.50
2022-09-04T19:56:31.623Z,26.50
2022-09-04T19:58:44.306Z,26.50
2022-09-04T20:00:53.892Z,26.50
2022-09-04T20:03:05.090Z,26.60
2022-09-04T20:05:24.819Z,26.50
2022-09-04T20:07:41.749Z,26.60
2022-09-04T20:09:52.956Z,26.60
2022-09-04T20:12:05.356Z,26.60
2022-09-04T20:14:27.241Z,26.70
2022-09-04T20:16:35.395Z,26.70
2022-09-04T20:18:47.434Z,26.70
2022-09-04T20:21:02.396Z,26.60
2022-09-04T20:23:34.051Z,26.70
2022-09-04T20:25:51.888Z,26.60
2022-09-04T20:28:05.157Z,26.60
2022-09-04T20:30:14.495Z,26.60
2022-09-04T20:32:24.668Z,26.60
2022-09-04T20:34:49.489Z,26.60
2022-09-04T20:37:15.156Z,26.60
2022-09-04T20:39:29.293Z,26.60
2022-09-04T20:41:45.033Z,26.50
2022-09-04T20:44:00.253Z,26.50
2022-09-04T20:50:12.444Z,26.60
2022-09-04T20:52:51.802Z,26.50
2022-09-04T20:52:57.192Z,26.50
2022-09-04T20:54:28.874Z,26.50
2022-09-04T20:57:43.557Z,26.60
2022-09-04T21:03:06.222Z,26.60
2022-09-04T21:03:19.029Z,26.60
2022-09-04T21:04:43.212Z,26.60
2022-09-04T21:06:53.865Z,26.60
2022-09-04T21:09:18.909Z,26.60
2022-09-04T21:11:39.359Z,26.50
2022-09-04T21:13:53.499Z,26.50
2022-09-04T21:16:12.123Z,26.50
2022-09-04T21:18:36.119Z,26.50
2022-09-04T21:20:59.981Z,26.50
2022-09-04T21:23:29.287Z,26.50
2022-09-04T21:25:51.991Z,26.50
2022-09-04T21:28:40.534Z,26.50
2022-09-04T21:31:07.701Z,26.40
2022-09-04T21:33:27.768Z,26.50
2022-09-04T21:35:40.692Z,26.50
2022-09-04T21:37:50.021Z,26.40
2022-09-04T21:40:49.452Z,26.40
2022-09-04T21:43:16.623Z,26.40
2022-09-04T21:45:34.922Z,26.40
2022-09-04T21:48:06.164Z,26.50
2022-09-04T21:50:51.335Z,26.50
2022-09-04T21:53:21.761Z,26.50
2022-09-04T21:58:11.514Z,26.50
2022-09-04T22:02:28.874Z,26.50
2022-09-04T22:02:49.205Z,26.50
2022-09-04T22:04:08.376Z,26.50
2022-09-04T22:07:17.923Z,26.50
2022-09-04T22:13:27.587Z,26.40
2022-09-04T22:13:40.328Z,26.40
2022-09-04T22:14:25.284Z,26.50
2022-09-04T22:17:17.525Z,26.40
2022-09-04T22:19:38.269Z,26.40
2022-09-04T22:22:02.115Z,26.40
2022-09-04T22:24:48.607Z,26.40
2022-09-04T22:27:30.491Z,26.40
2022-09-04T22:30:04.914Z,26.50
2022-09-04T22:32:38.925Z,26.50
2022-09-04T22:35:22.154Z,26.50
2022-09-04T22:38:08.920Z,26.50
2022-09-04T22:40:56.582Z,26.50
2022-09-04T22:43:15.750Z,26.50
2022-09-04T22:45:57.295Z,26.40
2022-09-04T22:48:30.122Z,26.40
2022-09-04T22:50:54.824Z,26.40
2022-09-04T22:53:27.284Z,26.40
2022-09-04T22:56:08.066Z,26.50
2022-09-04T22:58:28.351Z,26.50
2022-09-04T23:00:52.121Z,26.50
2022-09-04T23:03:32.826Z,26.40
2022-09-04T23:07:27.979Z,26.40
2022-09-04T23:13:53.539Z,26.40
2022-09-04T23:14:01.803Z,26.40
2022-09-04T23:14:26.975Z,26.40
2022-09-04T23:17:03.246Z,26.40
2022-09-04T23:26:32.227Z,26.40
2022-09-04T23:26:41.586Z,26.40
2022-09-04T23:26:43.771Z,26.50
2022-09-04T23:27:42.778Z,26.50
2022-09-04T23:30:06.759Z,26.50
2022-09-04T23:32:38.672Z,26.50
2022-09-04T23:35:14.636Z,26.60
2022-09-04T23:37:44.384Z,26.60
2022-09-04T23:40:13.332Z,26.60
2022-09-04T23:42:38.168Z,26.60
2022-09-04T23:45:05.730Z,26.70
2022-09-04T23:47:48.025Z,26.70
2022-09-04T23:50:04.895Z,26.70
2022-09-04T23:52:26.562Z,26.70
2022-09-04T23:54:56.886Z,26.70
2022-09-04T23:57:08.513Z,26.70
2022-09-04T23:59:39.312Z,26.70
